createdAt,value
2023-11-24T00:01:52.925Z,150426.78
2023-11-24T00:04:19.259Z,150421.75
2023-11-24T00:06:45.618Z,150434.38
2023-11-24T00:09:11.962Z,150421.75
2023-11-24T00:11:38.198Z,150399.03
2023-11-24T00:14:04.488Z,150424.25
2023-11-24T00:16:30.855Z,150428.03
2023-11-24T00:18:57.161Z,150428.03
2023-11-24T00:21:23.453Z,150438.16
2023-11-24T00:23:49.755Z,150453.31
2023-11-24T00:26:16.059Z,150416.72
2023-11-24T00:28:42.306Z,150423.00
2023-11-24T00:31:08.595Z,150439.41
2023-11-24T00:33:34.953Z,150450.75
2023-11-24T00:36:01.336Z,150420.50
2023-11-24T00:38:27.590Z,150428.03
2023-11-24T00:40:53.842Z,150412.88
2023-11-24T00:43:20.089Z,150390.19
2023-11-24T00:45:46.492Z,150332.16
2023-11-24T00:48:12.727Z,150340.97
2023-11-24T00:50:38.988Z,150329.63
2023-11-24T00:53:05.308Z,150309.47
2023-11-24T00:55:31.576Z,150305.63
2023-11-24T00:57:58.275Z,150296.81
2023-11-24T01:00:24.661Z,150300.59
2023-11-24T01:02:51.041Z,150293.06
2023-11-24T01:05:17.342Z,150293.06
2023-11-24T01:07:43.592Z,150266.50
2023-11-24T01:10:09.849Z,150265.22
2023-11-24T01:12:36.149Z,150251.34
2023-11-24T01:15:02.470Z,150241.28
2023-11-24T01:17:28.778Z,150251.34
2023-11-24T01:19:55.123Z,150234.94
2023-11-24T01:22:21.428Z,150238.75
2023-11-24T01:24:47.658Z,150208.47
2023-11-24T01:27:13.908Z,150209.72
2023-11-24T01:29:40.173Z,150171.91
2023-11-24T01:32:06.485Z,150144.13
2023-11-24T01:34:32.819Z,150115.16
2023-11-24T01:36:59.337Z,150116.41
2023-11-24T01:39:25.662Z,150116.41
2023-11-24T01:41:51.941Z,150102.53
2023-11-24T01:44:18.208Z,150100.03
2023-11-24T01:46:44.475Z,150087.41
2023-11-24T01:49:10.721Z,150095.00
2023-11-24T01:51:37.073Z,150067.25
2023-11-24T01:54:03.324Z,150067.25
2023-11-24T01:56:29.588Z,150050.84
2023-11-24T01:58:55.814Z,150053.38
2023-11-24T02:01:22.100Z,150050.84
2023-11-24T02:03:48.456Z,150050.84
2023-11-24T02:06:14.750Z,150048.34
2023-11-24T02:08:41.033Z,150039.50
2023-11-24T02:11:07.257Z,150030.69
2023-11-24T02:13:33.488Z,150015.56
2023-11-24T02:15:59.806Z,150006.75
2023-11-24T02:18:26.164Z,149997.91
2023-11-24T02:20:52.724Z,150004.25
2023-11-24T02:23:19.009Z,149996.66
2023-11-24T02:25:45.280Z,149991.63
2023-11-24T02:28:11.508Z,149980.25
2023-11-24T02:30:37.915Z,149952.56
2023-11-24T02:33:04.247Z,149977.75
2023-11-24T02:35:30.672Z,149950.06
2023-11-24T02:37:56.970Z,149955.06
2023-11-24T02:40:23.222Z,149994.13
2023-11-24T02:42:49.463Z,149958.84
2023-11-24T02:45:15.769Z,149931.09
2023-11-24T02:47:42.109Z,149931.09
2023-11-24T02:50:08.378Z,149955.06
2023-11-24T02:52:34.607Z,149941.19
2023-11-24T02:55:00.876Z,149919.78
2023-11-24T02:57:27.167Z,149933.66
2023-11-24T02:59:53.416Z,149922.31
2023-11-24T03:02:19.777Z,149934.91
2023-11-24T03:04:46.219Z,149953.81
2023-11-24T03:07:12.449Z,149933.66
2023-11-24T03:09:38.752Z,149947.47
2023-11-24T03:12:05.033Z,149948.75
2023-11-24T03:14:31.338Z,149922.31
2023-11-24T03:16:57.643Z,149929.84
2023-11-24T03:19:23.955Z,149958.84
2023-11-24T03:21:50.270Z,149939.94
2023-11-24T03:24:16.578Z,149941.19
2023-11-24T03:26:42.895Z,149960.09
2023-11-24T03:29:09.232Z,149951.31
2023-11-24T03:31:35.519Z,149927.31
2023-11-24T03:34:01.782Z,149942.47
2023-11-24T03:36:28.071Z,149963.88
2023-11-24T03:38:54.306Z,149933.66
2023-11-24T03:41:20.570Z,149947.47
2023-11-24T03:43:46.840Z,149938.69
2023-11-24T03:46:13.152Z,149943.72
2023-11-24T03:48:39.475Z,149957.59
2023-11-24T03:51:05.772Z,149961.38
2023-11-24T03:53:32.031Z,149972.72
2023-11-24T03:55:58.317Z,149958.84
2023-11-24T03:58:24.583Z,149950.06
2023-11-24T04:00:50.926Z,149942.47
2023-11-24T04:03:17.291Z,149948.75
2023-11-24T04:05:43.586Z,149948.75
2023-11-24T04:08:09.892Z,149952.56
2023-11-24T04:10:36.189Z,149955.06
2023-11-24T04:13:02.548Z,149963.88
2023-11-24T04:15:28.895Z,149934.91
2023-11-24T04:17:58.647Z,149923.56
2023-11-24T04:20:25.020Z,149904.66
2023-11-24T04:22:51.285Z,149934.91
2023-11-24T04:25:17.546Z,149932.41
2023-11-24T04:27:43.922Z,149962.63
2023-11-24T04:30:10.338Z,149973.97
2023-11-24T04:32:36.559Z,149952.56
2023-11-24T04:35:02.900Z,149944.97
2023-11-24T04:37:29.148Z,149962.63
2023-11-24T04:39:55.466Z,149900.88
2023-11-24T04:42:21.735Z,149880.75
2023-11-24T04:44:47.992Z,149894.56
2023-11-24T04:47:14.222Z,149897.13
2023-11-24T04:49:40.554Z,149914.75
2023-11-24T04:52:06.872Z,149926.06
2023-11-24T04:54:33.164Z,149916.03
2023-11-24T04:56:59.470Z,149904.66
2023-11-24T04:59:25.762Z,149917.28
2023-11-24T05:01:52.141Z,149944.97
2023-11-24T05:04:18.618Z,149961.38
2023-11-24T05:06:44.951Z,149967.66
2023-11-24T05:09:11.212Z,149938.69
2023-11-24T05:11:37.488Z,149947.47
2023-11-24T05:14:03.775Z,149946.22
2023-11-24T05:16:30.085Z,149973.97
2023-11-24T05:18:56.373Z,149987.84
2023-11-24T05:21:22.682Z,149976.50
2023-11-24T05:23:48.930Z,149968.94
2023-11-24T05:26:15.218Z,149938.69
2023-11-24T05:28:41.457Z,149764.81
2023-11-24T05:31:07.774Z,149662.81
2023-11-24T05:33:34.192Z,149589.78
2023-11-24T05:36:00.585Z,149562.13
2023-11-24T05:38:26.851Z,149562.13
2023-11-24T05:40:53.090Z,149567.16
2023-11-24T05:43:19.400Z,149564.63
2023-11-24T05:45:45.807Z,149581.00
2023-11-24T05:48:12.108Z,149587.28
2023-11-24T05:50:38.330Z,149575.97
2023-11-24T05:53:04.606Z,149588.53
2023-11-24T05:55:30.875Z,149586.03
2023-11-24T05:57:57.159Z,149567.16
2023-11-24T06:00:23.438Z,149554.56
2023-11-24T06:02:49.699Z,149553.28
2023-11-24T06:05:16.129Z,149575.97
2023-11-24T06:07:42.490Z,149560.88
2023-11-24T06:10:08.942Z,149586.03
2023-11-24T06:12:35.285Z,149596.13
2023-11-24T06:15:01.587Z,149609.97
2023-11-24T06:17:27.854Z,149623.78
2023-11-24T06:19:54.112Z,149622.53
2023-11-24T06:22:20.472Z,149607.41
2023-11-24T06:24:46.802Z,149618.75
2023-11-24T06:27:13.069Z,149628.84
2023-11-24T06:29:39.359Z,149642.66
2023-11-24T06:32:05.625Z,149655.28
2023-11-24T06:34:31.990Z,149662.81
2023-11-24T06:36:58.373Z,149686.75
2023-11-24T06:39:24.853Z,149664.09
2023-11-24T06:41:51.173Z,149674.16
2023-11-24T06:44:17.491Z,149701.88
2023-11-24T06:46:43.809Z,149677.94
2023-11-24T06:49:10.260Z,149694.28
2023-11-24T06:51:36.648Z,149691.78
2023-11-24T06:54:02.928Z,149698.06
2023-11-24T06:56:29.206Z,149690.53
2023-11-24T06:58:55.512Z,149700.63
2023-11-24T07:01:21.943Z,149690.53
2023-11-24T07:03:48.322Z,149708.16
2023-11-24T07:06:14.700Z,149709.41
2023-11-24T07:08:41.003Z,149740.91
2023-11-24T07:11:07.349Z,149730.81
2023-11-24T07:13:33.661Z,149733.31
2023-11-24T07:16:00.006Z,149740.91
2023-11-24T07:18:26.396Z,149776.19
2023-11-24T07:20:52.905Z,149767.34
2023-11-24T07:23:19.152Z,149772.41
2023-11-24T07:25:45.383Z,149761.06
2023-11-24T07:28:11.693Z,149764.81
2023-11-24T07:30:38.001Z,149763.56
2023-11-24T07:33:04.392Z,149704.38
2023-11-24T07:35:30.704Z,149698.06
2023-11-24T07:37:58.166Z,149708.16
2023-11-24T07:40:24.533Z,149686.75
2023-11-24T07:42:50.911Z,149666.63
2023-11-24T07:45:17.320Z,149698.06
2023-11-24T07:47:43.649Z,149709.41
2023-11-24T07:50:09.946Z,149666.63
2023-11-24T07:52:37.767Z,149703.13
2023-11-24T07:55:04.422Z,149696.81
2023-11-24T07:57:30.739Z,149710.66
2023-11-24T07:59:57.009Z,149684.25
2023-11-24T08:02:23.402Z,149684.25
2023-11-24T08:04:49.800Z,149681.75
2023-11-24T08:07:16.193Z,149691.78
2023-11-24T08:09:42.534Z,149654.03
2023-11-24T08:12:10.501Z,149672.91
2023-11-24T08:14:37.903Z,149679.19
2023-11-24T08:17:04.237Z,149662.81
2023-11-24T08:19:30.562Z,149666.63
2023-11-24T08:21:56.847Z,149647.75
2023-11-24T08:24:23.207Z,149620.03
2023-11-24T08:26:49.508Z,149657.78
2023-11-24T08:29:16.907Z,149674.16
2023-11-24T08:31:43.225Z,149647.75
2023-11-24T08:34:09.580Z,149666.63
2023-11-24T08:36:35.905Z,149633.88
2023-11-24T08:39:02.220Z,149657.78
2023-11-24T08:41:35.456Z,149669.13
2023-11-24T08:44:06.709Z,149671.66
2023-11-24T08:46:33.024Z,149631.38
2023-11-24T08:48:59.332Z,149638.91
2023-11-24T08:51:25.604Z,149662.81
2023-11-24T08:53:51.874Z,149685.50
2023-11-24T08:56:18.165Z,149670.38
2023-11-24T08:58:44.389Z,149670.38
2023-11-24T09:01:10.707Z,149725.78
2023-11-24T09:03:37.062Z,149710.66
2023-11-24T09:06:03.393Z,149694.28
2023-11-24T09:08:29.703Z,149710.66
2023-11-24T09:10:56.059Z,149696.81
2023-11-24T09:13:22.415Z,149756.03
2023-11-24T09:15:48.852Z,149762.31
2023-11-24T09:18:15.148Z,149749.69
2023-11-24T09:20:41.455Z,149700.63
2023-11-24T09:23:07.775Z,149756.03
2023-11-24T09:25:34.078Z,149732.06
2023-11-24T09:28:00.397Z,149691.78
2023-11-24T09:30:26.817Z,149737.13
2023-11-24T09:32:53.113Z,149693.03
2023-11-24T09:35:19.471Z,149664.09
2023-11-24T09:37:45.810Z,149672.91
2023-11-24T09:40:12.111Z,149666.63
2023-11-24T09:42:38.506Z,149667.88
2023-11-24T09:45:04.825Z,149677.94
2023-11-24T09:47:31.174Z,149883.25
2023-11-24T09:49:57.557Z,149931.09
2023-11-24T09:52:23.809Z,149835.34
2023-11-24T09:54:50.122Z,149826.56
2023-11-24T09:57:16.427Z,149778.69
2023-11-24T09:59:42.737Z,149753.50
2023-11-24T10:02:09.125Z,149703.13
2023-11-24T10:04:35.863Z,149725.78
2023-11-24T10:07:02.250Z,149729.56
2023-11-24T10:09:28.538Z,149708.16
2023-11-24T10:11:54.812Z,149696.81
2023-11-24T10:14:21.136Z,149688.00
2023-11-24T10:16:47.422Z,149665.38
2023-11-24T10:19:13.827Z,149665.38
2023-11-24T10:21:40.125Z,149732.06
2023-11-24T10:24:06.406Z,149695.56
2023-11-24T10:26:32.656Z,149689.28
2023-11-24T10:28:59.089Z,149703.13
2023-11-24T10:31:25.506Z,149709.41
2023-11-24T10:33:52.055Z,149679.19
2023-11-24T10:36:18.527Z,149674.16
2023-11-24T10:38:44.826Z,149651.50
2023-11-24T10:41:11.117Z,149671.66
2023-11-24T10:43:40.434Z,149713.19
2023-11-24T10:46:10.029Z,149667.88
2023-11-24T10:48:37.663Z,149671.66
2023-11-24T10:51:03.928Z,149696.81
2023-11-24T10:53:30.225Z,149665.38
2023-11-24T10:55:56.494Z,149662.81
2023-11-24T10:58:22.800Z,149649.00
2023-11-24T11:00:49.235Z,149609.97
2023-11-24T11:03:15.528Z,149574.72
2023-11-24T11:05:41.853Z,149457.66
2023-11-24T11:08:08.113Z,149403.56
2023-11-24T11:10:34.417Z,149379.69
2023-11-24T11:13:00.691Z,149424.94
2023-11-24T11:15:27.095Z,149452.66
2023-11-24T11:17:56.115Z,149469.00
2023-11-24T11:20:22.387Z,149455.16
2023-11-24T11:22:48.771Z,149504.25
2023-11-24T11:25:15.185Z,149539.47
2023-11-24T11:27:41.503Z,149554.56
2023-11-24T11:30:07.799Z,149567.16
2023-11-24T11:32:34.184Z,149535.66
2023-11-24T11:35:00.479Z,149477.78
2023-11-24T11:37:26.791Z,149486.63
2023-11-24T11:39:53.125Z,149450.16
2023-11-24T11:42:20.099Z,149451.41
2023-11-24T11:44:46.356Z,149443.81
2023-11-24T11:47:12.628Z,149471.53
2023-11-24T11:49:38.900Z,149479.06
2023-11-24T11:52:05.227Z,149501.69
2023-11-24T11:54:31.518Z,149558.38
2023-11-24T11:56:57.781Z,149650.25
2023-11-24T11:59:24.102Z,149847.97
2023-11-24T12:01:50.506Z,149904.66
2023-11-24T12:04:16.846Z,149899.63
2023-11-24T12:06:43.173Z,149951.31
2023-11-24T12:09:09.431Z,149968.94
2023-11-24T12:11:35.689Z,149980.25
2023-11-24T12:14:01.961Z,150217.28
2023-11-24T12:16:28.452Z,150238.75
2023-11-24T12:18:54.752Z,150126.47
2023-11-24T12:21:21.106Z,150063.47
2023-11-24T12:23:47.355Z,150028.19
2023-11-24T12:26:13.687Z,150019.31
2023-11-24T12:28:40.006Z,149861.84
2023-11-24T12:31:06.322Z,149808.94
2023-11-24T12:33:32.771Z,149729.56
2023-11-24T12:35:59.030Z,149681.75
2023-11-24T12:38:25.325Z,149650.25
2023-11-24T12:40:51.680Z,149591.06
2023-11-24T12:43:18.105Z,149601.13
2023-11-24T12:45:44.911Z,149581.00
2023-11-24T12:48:11.221Z,149577.25
2023-11-24T12:50:37.609Z,149587.28
2023-11-24T12:53:03.889Z,149602.41
2023-11-24T12:55:30.169Z,149617.50
2023-11-24T12:57:58.385Z,149662.81
2023-11-24T13:00:24.735Z,149690.53
2023-11-24T13:02:51.044Z,149743.41
2023-11-24T13:05:18.175Z,149894.56
2023-11-24T13:07:44.685Z,149924.81
2023-11-24T13:10:11.020Z,149834.09
2023-11-24T13:12:37.325Z,149797.56
2023-11-24T13:15:03.634Z,149790.03
2023-11-24T13:17:29.902Z,149813.97
2023-11-24T13:19:56.262Z,149818.97
2023-11-24T13:22:23.017Z,149807.69
2023-11-24T13:24:49.434Z,149803.84
2023-11-24T13:27:15.695Z,149750.97
2023-11-24T13:29:42.022Z,149718.25
2023-11-24T13:32:08.305Z,149700.63
2023-11-24T13:34:34.758Z,149756.03
2023-11-24T13:37:01.226Z,149787.47
2023-11-24T13:39:27.483Z,149777.44
2023-11-24T13:41:53.811Z,149732.06
2023-11-24T13:44:20.096Z,149655.28
2023-11-24T13:46:46.410Z,149656.53
2023-11-24T13:49:12.745Z,149660.28
2023-11-24T13:51:39.086Z,149632.63
2023-11-24T13:54:05.433Z,149669.13
2023-11-24T13:56:31.738Z,149691.78
2023-11-24T13:58:58.072Z,149716.94
2023-11-24T14:01:24.512Z,149638.91
2023-11-24T14:03:51.052Z,149607.41
2023-11-24T14:06:17.394Z,149587.28
2023-11-24T14:08:43.619Z,149558.38
2023-11-24T14:11:09.879Z,149578.50
2023-11-24T14:13:36.225Z,149505.50
2023-11-24T14:16:02.564Z,149516.81
2023-11-24T14:18:28.830Z,149530.66
2023-11-24T14:20:55.090Z,149506.75
2023-11-24T14:23:21.330Z,149461.44
2023-11-24T14:25:47.590Z,149446.34
2023-11-24T14:28:15.027Z,149431.28
2023-11-24T14:30:42.194Z,149438.81
2023-11-24T14:33:08.450Z,149457.66
2023-11-24T14:35:34.743Z,149477.78
2023-11-24T14:38:01.040Z,149477.78
2023-11-24T14:40:27.416Z,149475.28
2023-11-24T14:42:53.696Z,149452.66
2023-11-24T14:45:19.998Z,149462.69
2023-11-24T14:47:46.317Z,149428.72
2023-11-24T14:50:12.611Z,149423.69
2023-11-24T14:52:38.928Z,149429.97
2023-11-24T14:55:05.374Z,149438.81
2023-11-24T14:57:31.799Z,149393.50
2023-11-24T14:59:58.076Z,149396.06
2023-11-24T15:02:24.429Z,149414.91
2023-11-24T15:04:50.769Z,149368.34
2023-11-24T15:07:17.094Z,149344.47
2023-11-24T15:09:43.527Z,149360.81
2023-11-24T15:12:09.835Z,149336.91
2023-11-24T15:14:36.083Z,149323.06
2023-11-24T15:17:02.426Z,149329.38
2023-11-24T15:19:28.868Z,149325.59
2023-11-24T15:21:55.250Z,149306.75
2023-11-24T15:24:21.562Z,149299.16
2023-11-24T15:26:47.889Z,149305.50
2023-11-24T15:29:14.163Z,149304.19
2023-11-24T15:31:40.572Z,149315.53
2023-11-24T15:34:06.931Z,149310.50
2023-11-24T15:36:35.218Z,149290.38
2023-11-24T15:39:01.534Z,149290.38
2023-11-24T15:41:27.790Z,149304.19
2023-11-24T15:43:54.070Z,149311.75
2023-11-24T15:46:20.406Z,149299.16
2023-11-24T15:48:46.758Z,149300.44
2023-11-24T15:51:13.102Z,149261.44
2023-11-24T15:53:39.373Z,149277.81
2023-11-24T15:56:05.648Z,149266.47
2023-11-24T15:58:31.964Z,149287.88
2023-11-24T16:00:58.505Z,149268.97
2023-11-24T16:03:25.041Z,149275.28
2023-11-24T16:05:51.378Z,149257.69
2023-11-24T16:08:17.694Z,149284.06
2023-11-24T16:10:46.832Z,149252.69
2023-11-24T16:13:13.532Z,149242.59
2023-11-24T16:15:39.916Z,149253.94
2023-11-24T16:18:07.211Z,149252.69
2023-11-24T16:20:33.597Z,149282.81
2023-11-24T16:22:59.921Z,149247.63
2023-11-24T16:25:26.223Z,149245.09
2023-11-24T16:27:52.500Z,149242.59
2023-11-24T16:30:18.839Z,149240.09
2023-11-24T16:32:45.187Z,149216.22
2023-11-24T16:35:11.567Z,149255.19
2023-11-24T16:37:37.944Z,149247.63
2023-11-24T16:40:04.327Z,149260.19
2023-11-24T16:42:30.717Z,149251.38
2023-11-24T16:44:57.075Z,149246.34
2023-11-24T16:47:23.392Z,149230.00
2023-11-24T16:49:49.784Z,149228.75
2023-11-24T16:52:16.094Z,149225.00
2023-11-24T16:54:42.372Z,149227.50
2023-11-24T16:57:08.656Z,149232.50
2023-11-24T16:59:34.969Z,149237.56
2023-11-24T17:02:01.341Z,149230.00
2023-11-24T17:04:27.674Z,149202.38
2023-11-24T17:06:54.020Z,149208.63
2023-11-24T17:09:20.526Z,149212.41
2023-11-24T17:11:46.813Z,149213.66
2023-11-24T17:14:13.116Z,149227.50
2023-11-24T17:16:39.518Z,149208.63
2023-11-24T17:19:05.843Z,149247.63
2023-11-24T17:21:32.162Z,149202.38
2023-11-24T17:23:58.601Z,149211.16
2023-11-24T17:26:26.130Z,149193.56
2023-11-24T17:28:52.549Z,149199.88
2023-11-24T17:31:18.876Z,149173.44
2023-11-24T17:33:45.189Z,149194.81
2023-11-24T17:36:11.491Z,149223.75
2023-11-24T17:38:37.839Z,149208.63
2023-11-24T17:41:04.168Z,149216.22
2023-11-24T17:43:30.560Z,149202.38
2023-11-24T17:45:56.932Z,149179.72
2023-11-24T17:48:23.260Z,149187.28
2023-11-24T17:50:49.612Z,149175.94
2023-11-24T17:53:15.920Z,149172.19
2023-11-24T17:55:42.217Z,149191.03
2023-11-24T17:58:08.528Z,149175.94
2023-11-24T18:00:34.875Z,149178.47
2023-11-24T18:03:01.241Z,149170.94
2023-11-24T18:05:27.478Z,149186.03
2023-11-24T18:07:58.445Z,149194.81
2023-11-24T18:10:24.805Z,149164.66
2023-11-24T18:12:51.187Z,149204.88
2023-11-24T18:15:17.541Z,149198.63
2023-11-24T18:17:43.885Z,149181.00
2023-11-24T18:20:12.666Z,149207.38
2023-11-24T18:22:40.698Z,149198.63
2023-11-24T18:25:07.131Z,149182.25
2023-11-24T18:27:33.494Z,149201.13
2023-11-24T18:29:59.840Z,149233.78
2023-11-24T18:32:26.129Z,149218.72
2023-11-24T18:34:52.414Z,149222.47
2023-11-24T18:37:18.740Z,149236.31
2023-11-24T18:39:44.984Z,149247.63
2023-11-24T18:42:11.284Z,149233.78
2023-11-24T18:44:37.573Z,149188.53
2023-11-24T18:47:03.835Z,149179.72
2023-11-24T18:49:30.183Z,149199.88
2023-11-24T18:51:56.481Z,149188.53
2023-11-24T18:54:22.739Z,149207.38
2023-11-24T18:56:49.016Z,149218.72
2023-11-24T18:59:15.360Z,149193.56
2023-11-24T19:01:41.768Z,149168.44
2023-11-24T19:04:08.215Z,149170.94
2023-11-24T19:06:34.585Z,149147.06
2023-11-24T19:09:00.922Z,149142.00
2023-11-24T19:11:27.252Z,149164.66
2023-11-24T19:13:53.554Z,149173.44
2023-11-24T19:16:19.959Z,149168.44
2023-11-24T19:18:46.281Z,149163.41
2023-11-24T19:21:12.609Z,149169.69
2023-11-24T19:23:38.943Z,149174.69
2023-11-24T19:26:05.289Z,149182.25
2023-11-24T19:28:31.703Z,149168.44
2023-11-24T19:30:58.039Z,149129.47
2023-11-24T19:33:24.387Z,149111.88
2023-11-24T19:35:50.683Z,149131.97
2023-11-24T19:38:16.990Z,149149.56
2023-11-24T19:40:43.298Z,149134.47
2023-11-24T19:43:09.656Z,149129.47
2023-11-24T19:45:35.968Z,149106.81
2023-11-24T19:48:02.273Z,149113.13
2023-11-24T19:50:28.568Z,149089.22
2023-11-24T19:52:54.879Z,149095.53
2023-11-24T19:55:21.231Z,149065.34
2023-11-24T19:57:47.531Z,149062.84
2023-11-24T20:00:14.114Z,149067.88
2023-11-24T20:02:40.627Z,149069.13
2023-11-24T20:05:07.171Z,149072.88
2023-11-24T20:07:33.717Z,149077.94
2023-11-24T20:09:59.985Z,149079.19
2023-11-24T20:12:26.275Z,149069.13
2023-11-24T20:14:52.531Z,149065.34
2023-11-24T20:17:18.866Z,149076.69
2023-11-24T20:19:45.074Z,149071.63
2023-11-24T20:22:11.435Z,149069.13
2023-11-24T20:24:37.740Z,149094.28
2023-11-24T20:27:04.040Z,149098.03
2023-11-24T20:29:30.414Z,149086.72
2023-11-24T20:31:56.733Z,149065.34
2023-11-24T20:34:23.200Z,149069.13
2023-11-24T20:36:49.695Z,149095.53
2023-11-24T20:39:17.021Z,149060.34
2023-11-24T20:41:43.538Z,149082.94
2023-11-24T20:44:09.894Z,149081.69
2023-11-24T20:46:36.200Z,149065.34
2023-11-24T20:49:02.617Z,149036.44
2023-11-24T20:51:28.997Z,149042.75
2023-11-24T20:53:55.328Z,149044.00
2023-11-24T20:56:21.656Z,149026.41
2023-11-24T20:58:47.951Z,149046.50
2023-11-24T21:01:14.396Z,149046.50
2023-11-24T21:03:40.739Z,149026.41
2023-11-24T21:06:07.005Z,149005.06
2023-11-24T21:08:33.332Z,149033.94
2023-11-24T21:10:59.669Z,149059.09
2023-11-24T21:13:26.042Z,149066.63
2023-11-24T21:15:52.399Z,149028.91
2023-11-24T21:18:18.937Z,149031.44
2023-11-24T21:20:45.378Z,149049.03
2023-11-24T21:23:11.645Z,149074.19
2023-11-24T21:25:38.036Z,149064.09
2023-11-24T21:28:04.427Z,149104.31
2023-11-24T21:30:30.749Z,149089.22
2023-11-24T21:32:58.939Z,149059.09
2023-11-24T21:35:25.256Z,149109.38
2023-11-24T21:37:51.594Z,149125.66
2023-11-24T21:40:17.989Z,149085.47
2023-11-24T21:42:44.330Z,149060.34
2023-11-24T21:45:10.607Z,149023.91
2023-11-24T21:47:36.972Z,149042.75
2023-11-24T21:50:03.292Z,149066.63
2023-11-24T21:52:29.715Z,149055.34
2023-11-24T21:54:56.069Z,149070.38
2023-11-24T21:57:22.343Z,149086.72
2023-11-24T21:59:48.726Z,149080.44
2023-11-24T22:02:15.172Z,149072.88
2023-11-24T22:04:41.575Z,149086.72
2023-11-24T22:07:07.956Z,149077.94
2023-11-24T22:09:34.261Z,149064.09
2023-11-24T22:12:00.522Z,149060.34
2023-11-24T22:14:26.871Z,149036.44
2023-11-24T22:16:53.271Z,149045.25
2023-11-24T22:19:19.679Z,149044.00
2023-11-24T22:21:45.954Z,149075.44
2023-11-24T22:24:12.265Z,149071.63
2023-11-24T22:26:38.579Z,149082.94
2023-11-24T22:29:04.854Z,149059.09
2023-11-24T22:31:31.314Z,149056.59
2023-11-24T22:33:57.840Z,149064.09
2023-11-24T22:36:24.135Z,149055.34
2023-11-24T22:38:50.510Z,149055.34
2023-11-24T22:41:17.202Z,149062.84
2023-11-24T22:43:43.482Z,149077.94
2023-11-24T22:46:09.893Z,149090.47
2023-11-24T22:48:36.255Z,149074.19
2023-11-24T22:51:02.576Z,149080.44
2023-11-24T22:53:28.902Z,149056.59
2023-11-24T22:55:55.227Z,149047.78
2023-11-24T22:58:21.586Z,149030.19
2023-11-24T23:00:47.922Z,149018.84
2023-11-24T23:03:14.491Z,149025.16
2023-11-24T23:05:40.893Z,149035.19
2023-11-24T23:08:07.249Z,149052.78
2023-11-24T23:10:33.546Z,149033.94
2023-11-24T23:12:59.939Z,149041.50
2023-11-24T23:15:26.245Z,149057.84
2023-11-24T23:17:52.578Z,149050.28
2023-11-24T23:20:18.859Z,149044.00
2023-11-24T23:22:45.149Z,149003.81
2023-11-24T23:25:11.483Z,148992.50
2023-11-24T23:27:37.987Z,149010.06
2023-11-24T23:30:04.264Z,149006.31
2023-11-24T23:32:33.688Z,148976.16
2023-11-24T23:34:59.988Z,148997.50
2023-11-24T23:37:26.337Z,148996.25
2023-11-24T23:39:52.709Z,148969.88
2023-11-24T23:42:19.032Z,148989.97
2023-11-24T23:44:45.338Z,148996.25
2023-11-24T23:47:11.767Z,148993.75
2023-11-24T23:49:38.157Z,149001.25
2023-11-24T23:52:04.444Z,148989.97
2023-11-24T23:54:30.723Z,148974.91
2023-11-24T23:56:57.582Z,148988.72
2023-11-24T23:59:23.852Z,148963.59
